sensor_id;sensor_type;location;lat;lon;timestamp;temperature;humidity
5304;DHT22;2674;49.722;10.892;2023-02-11T00:00:14;-3.70;99.90
5304;DHT22;2674;49.722;10.892;2023-02-11T00:02:40;-3.70;99.90
5304;DHT22;2674;49.722;10.892;2023-02-11T00:05:07;-3.70;99.90
5304;DHT22;2674;49.722;10.892;2023-02-11T00:07:33;-3.80;99.90
5304;DHT22;2674;49.722;10.892;2023-02-11T00:09:59;-3.80;99.90
5304;DHT22;2674;49.722;10.892;2023-02-11T00:12:27;-3.80;99.90
5304;DHT22;2674;49.722;10.892;2023-02-11T00:14:53;-3.70;99.90
5304;DHT22;2674;49.722;10.892;2023-02-11T00:17:19;-3.80;99.90
5304;DHT22;2674;49.722;10.892;2023-02-11T00:19:49;-3.80;99.90
5304;DHT22;2674;49.722;10.892;2023-02-11T00:22:15;-3.80;99.90
5304;DHT22;2674;49.722;10.892;2023-02-11T00:24:41;-3.80;99.90
5304;DHT22;2674;49.722;10.892;2023-02-11T00:27:06;-3.80;99.90
5304;DHT22;2674;49.722;10.892;2023-02-11T00:29:32;-3.80;99.90
5304;DHT22;2674;49.722;10.892;2023-02-11T00:31:58;-3.80;99.90
5304;DHT22;2674;49.722;10.892;2023-02-11T00:34:30;-3.70;99.90
5304;DHT22;2674;49.722;10.892;2023-02-11T00:36:56;-3.70;99.90
5304;DHT22;2674;49.722;10.892;2023-02-11T00:39:21;-3.60;99.90
5304;DHT22;2674;49.722;10.892;2023-02-11T00:41:47;-3.60;99.90
5304;DHT22;2674;49.722;10.892;2023-02-11T00:44:13;-3.60;99.90
5304;DHT22;2674;49.722;10.892;2023-02-11T00:46:39;-3.60;99.90
5304;DHT22;2674;49.722;10.892;2023-02-11T00:49:04;-3.60;99.90
5304;DHT22;2674;49.722;10.892;2023-02-11T00:51:34;-3.60;99.90
5304;DHT22;2674;49.722;10.892;2023-02-11T00:54:03;-3.60;99.90
5304;DHT22;2674;49.722;10.892;2023-02-11T00:56:29;-3.60;99.90
5304;DHT22;2674;49.722;10.892;2023-02-11T00:58:54;-3.60;99.90
5304;DHT22;2674;49.722;10.892;2023-02-11T01:01:20;-3.50;99.90
5304;DHT22;2674;49.722;10.892;2023-02-11T01:03:46;-3.50;99.90
5304;DHT22;2674;49.722;10.892;2023-02-11T01:06:12;-3.40;99.90
5304;DHT22;2674;49.722;10.892;2023-02-11T01:08:38;-3.50;99.90
5304;DHT22;2674;49.722;10.892;2023-02-11T01:11:07;-3.40;99.90
5304;DHT22;2674;49.722;10.892;2023-02-11T01:13:35;-3.40;99.90
5304;DHT22;2674;49.722;10.892;2023-02-11T01:16:02;-3.40;99.90
5304;DHT22;2674;49.722;10.892;2023-02-11T01:18:28;-3.30;99.90
5304;DHT22;2674;49.722;10.892;2023-02-11T01:20:54;-3.30;99.90
5304;DHT22;2674;49.722;10.892;2023-02-11T01:23:20;-3.30;99.90
5304;DHT22;2674;49.722;10.892;2023-02-11T01:25:47;-3.20;99.90
5304;DHT22;2674;49.722;10.892;2023-02-11T01:28:25;-3.20;99.90
5304;DHT22;2674;49.722;10.892;2023-02-11T01:30:51;-3.20;99.90
5304;DHT22;2674;49.722;10.892;2023-02-11T01:33:17;-3.20;99.90
5304;DHT22;2674;49.722;10.892;2023-02-11T01:35:44;-3.30;99.90
5304;DHT22;2674;49.722;10.892;2023-02-11T01:38:23;-3.30;99.90
5304;DHT22;2674;49.722;10.892;2023-02-11T01:40:55;-3.40;99.90
5304;DHT22;2674;49.722;10.892;2023-02-11T01:43:22;-3.40;99.90
5304;DHT22;2674;49.722;10.892;2023-02-11T01:45:52;-3.30;99.90
5304;DHT22;2674;49.722;10.892;2023-02-11T01:48:31;-3.50;99.90
5304;DHT22;2674;49.722;10.892;2023-02-11T01:51:10;-3.30;99.90
5304;DHT22;2674;49.722;10.892;2023-02-11T01:53:37;-3.30;99.90
5304;DHT22;2674;49.722;10.892;2023-02-11T01:56:24;-3.30;99.90
5304;DHT22;2674;49.722;10.892;2023-02-11T01:59:19;-3.30;99.90
5304;DHT22;2674;49.722;10.892;2023-02-11T02:01:52;-3.30;99.90
5304;DHT22;2674;49.722;10.892;2023-02-11T02:04:22;-3.30;99.90
5304;DHT22;2674;49.722;10.892;2023-02-11T02:06:56;-3.20;99.90
5304;DHT22;2674;49.722;10.892;2023-02-11T02:09:29;-3.20;99.90
5304;DHT22;2674;49.722;10.892;2023-02-11T02:11:56;-3.20;99.90
5304;DHT22;2674;49.722;10.892;2023-02-11T02:14:22;-3.20;99.90
5304;DHT22;2674;49.722;10.892;2023-02-11T02:16:48;-3.20;99.90
5304;DHT22;2674;49.722;10.892;2023-02-11T02:19:23;-3.10;99.90
5304;DHT22;2674;49.722;10.892;2023-02-11T02:25:27;-3.10;99.90
5304;DHT22;2674;49.722;10.892;2023-02-11T02:31:19;-3.00;99.90
5304;DHT22;2674;49.722;10.892;2023-02-11T02:36:12;-2.90;99.90
5304;DHT22;2674;49.722;10.892;2023-02-11T02:41:16;-2.80;99.90
5304;DHT22;2674;49.722;10.892;2023-02-11T02:43:45;-2.80;99.90
5304;DHT22;2674;49.722;10.892;2023-02-11T02:46:24;-2.80;99.90
5304;DHT22;2674;49.722;10.892;2023-02-11T02:48:51;-2.70;99.90
5304;DHT22;2674;49.722;10.892;2023-02-11T03:00:03;-2.60;99.90
5304;DHT22;2674;49.722;10.892;2023-02-11T03:03:21;-2.60;99.90
5304;DHT22;2674;49.722;10.892;2023-02-11T03:08:17;-2.50;99.90
5304;DHT22;2674;49.722;10.892;2023-02-11T03:10:50;-2.50;99.90
5304;DHT22;2674;49.722;10.892;2023-02-11T03:13:19;-2.40;99.90
5304;DHT22;2674;49.722;10.892;2023-02-11T03:15:49;-2.40;99.90
5304;DHT22;2674;49.722;10.892;2023-02-11T03:18:18;-2.40;99.90
5304;DHT22;2674;49.722;10.892;2023-02-11T03:20:49;-2.40;99.90
5304;DHT22;2674;49.722;10.892;2023-02-11T03:23:40;-2.40;99.90
5304;DHT22;2674;49.722;10.892;2023-02-11T03:29:23;-2.40;99.90
5304;DHT22;2674;49.722;10.892;2023-02-11T03:34:59;-2.50;99.90
5304;DHT22;2674;49.722;10.892;2023-02-11T03:37:36;-2.50;99.90
5304;DHT22;2674;49.722;10.892;2023-02-11T03:40:14;-2.50;99.90
5304;DHT22;2674;49.722;10.892;2023-02-11T03:42:51;-2.40;99.90
5304;DHT22;2674;49.722;10.892;2023-02-11T03:45:21;-2.40;99.90
5304;DHT22;2674;49.722;10.892;2023-02-11T03:47:53;-2.40;99.90
5304;DHT22;2674;49.722;10.892;2023-02-11T03:50:21;-2.30;99.90
5304;DHT22;2674;49.722;10.892;2023-02-11T03:52:49;-2.20;99.90
5304;DHT22;2674;49.722;10.892;2023-02-11T03:55:17;-2.20;99.90
5304;DHT22;2674;49.722;10.892;2023-02-11T03:57:43;-2.10;99.90
5304;DHT22;2674;49.722;10.892;2023-02-11T04:00:10;-2.10;99.90
5304;DHT22;2674;49.722;10.892;2023-02-11T04:02:37;-2.00;99.90
5304;DHT22;2674;49.722;10.892;2023-02-11T04:05:04;-2.00;99.90
5304;DHT22;2674;49.722;10.892;2023-02-11T04:07:31;-1.90;99.90
5304;DHT22;2674;49.722;10.892;2023-02-11T04:09:57;-1.90;99.90
5304;DHT22;2674;49.722;10.892;2023-02-11T04:12:23;-1.80;99.90
5304;DHT22;2674;49.722;10.892;2023-02-11T04:14:49;-1.80;99.90
5304;DHT22;2674;49.722;10.892;2023-02-11T04:17:15;-1.90;99.90
5304;DHT22;2674;49.722;10.892;2023-02-11T04:19:41;-1.70;99.90
5304;DHT22;2674;49.722;10.892;2023-02-11T04:22:07;-1.70;99.90
5304;DHT22;2674;49.722;10.892;2023-02-11T04:24:33;-1.80;99.90
5304;DHT22;2674;49.722;10.892;2023-02-11T04:26:59;-1.80;99.90
5304;DHT22;2674;49.722;10.892;2023-02-11T04:29:25;-1.80;99.90
5304;DHT22;2674;49.722;10.892;2023-02-11T04:31:51;-1.80;99.90
5304;DHT22;2674;49.722;10.892;2023-02-11T04:34:17;-1.80;99.90
5304;DHT22;2674;49.722;10.892;2023-02-11T04:36:43;-1.80;99.90
5304;DHT22;2674;49.722;10.892;2023-02-11T04:39:08;-1.70;99.90
5304;DHT22;2674;49.722;10.892;2023-02-11T04:41:34;-1.70;99.90
5304;DHT22;2674;49.722;10.892;2023-02-11T04:44:00;-1.70;99.90
5304;DHT22;2674;49.722;10.892;2023-02-11T04:46:26;-1.60;99.90
5304;DHT22;2674;49.722;10.892;2023-02-11T04:48:51;-1.60;99.90
5304;DHT22;2674;49.722;10.892;2023-02-11T04:51:17;-1.50;99.90
5304;DHT22;2674;49.722;10.892;2023-02-11T04:53:43;-1.50;99.90
5304;DHT22;2674;49.722;10.892;2023-02-11T04:56:09;-1.50;99.90
5304;DHT22;2674;49.722;10.892;2023-02-11T04:58:35;-1.40;99.90
5304;DHT22;2674;49.722;10.892;2023-02-11T05:01:11;-1.40;99.90
5304;DHT22;2674;49.722;10.892;2023-02-11T05:03:38;-1.30;99.90
5304;DHT22;2674;49.722;10.892;2023-02-11T05:06:04;-1.30;99.90
5304;DHT22;2674;49.722;10.892;2023-02-11T05:08:32;-1.20;99.90
5304;DHT22;2674;49.722;10.892;2023-02-11T05:10:58;-1.20;99.90
5304;DHT22;2674;49.722;10.892;2023-02-11T05:13:24;-1.20;99.90
5304;DHT22;2674;49.722;10.892;2023-02-11T05:15:50;-1.20;99.90
5304;DHT22;2674;49.722;10.892;2023-02-11T05:18:18;-1.10;99.90
5304;DHT22;2674;49.722;10.892;2023-02-11T05:20:43;-1.10;99.90
5304;DHT22;2674;49.722;10.892;2023-02-11T05:23:10;-1.10;99.90
5304;DHT22;2674;49.722;10.892;2023-02-11T05:25:36;-1.20;99.90
5304;DHT22;2674;49.722;10.892;2023-02-11T05:28:03;-1.20;99.90
5304;DHT22;2674;49.722;10.892;2023-02-11T05:30:29;-1.20;99.90
5304;DHT22;2674;49.722;10.892;2023-02-11T05:32:55;-1.30;99.90
5304;DHT22;2674;49.722;10.892;2023-02-11T05:35:21;-1.30;99.90
5304;DHT22;2674;49.722;10.892;2023-02-11T05:37:47;-1.40;99.90
5304;DHT22;2674;49.722;10.892;2023-02-11T05:40:12;-1.40;99.90
5304;DHT22;2674;49.722;10.892;2023-02-11T05:42:38;-1.40;99.90
5304;DHT22;2674;49.722;10.892;2023-02-11T05:45:04;-1.40;99.90
5304;DHT22;2674;49.722;10.892;2023-02-11T05:47:30;-1.40;99.90
5304;DHT22;2674;49.722;10.892;2023-02-11T05:49:56;-1.40;99.90
5304;DHT22;2674;49.722;10.892;2023-02-11T05:52:22;-1.50;99.90
5304;DHT22;2674;49.722;10.892;2023-02-11T05:54:49;-1.50;99.90
5304;DHT22;2674;49.722;10.892;2023-02-11T05:57:15;-1.50;99.90
5304;DHT22;2674;49.722;10.892;2023-02-11T05:59:41;-1.50;99.90
5304;DHT22;2674;49.722;10.892;2023-02-11T06:02:07;-1.50;99.90
5304;DHT22;2674;49.722;10.892;2023-02-11T06:04:34;-1.50;99.90
5304;DHT22;2674;49.722;10.892;2023-02-11T06:07:00;-1.50;99.90
5304;DHT22;2674;49.722;10.892;2023-02-11T06:09:26;-1.40;99.90
5304;DHT22;2674;49.722;10.892;2023-02-11T06:11:52;-1.40;99.90
5304;DHT22;2674;49.722;10.892;2023-02-11T06:14:18;-1.40;99.90
5304;DHT22;2674;49.722;10.892;2023-02-11T06:16:44;-1.40;99.90
5304;DHT22;2674;49.722;10.892;2023-02-11T06:19:11;-1.40;99.90
5304;DHT22;2674;49.722;10.892;2023-02-11T06:21:37;-1.50;99.90
5304;DHT22;2674;49.722;10.892;2023-02-11T06:24:04;-1.50;99.90
5304;DHT22;2674;49.722;10.892;2023-02-11T06:26:30;-1.50;99.90
5304;DHT22;2674;49.722;10.892;2023-02-11T06:28:59;-1.60;99.90
5304;DHT22;2674;49.722;10.892;2023-02-11T06:31:25;-1.60;99.90
5304;DHT22;2674;49.722;10.892;2023-02-11T06:33:51;-1.50;99.90
5304;DHT22;2674;49.722;10.892;2023-02-11T06:36:20;-1.60;99.90
5304;DHT22;2674;49.722;10.892;2023-02-11T06:38:50;-1.60;99.90
5304;DHT22;2674;49.722;10.892;2023-02-11T06:41:16;-1.50;99.90
5304;DHT22;2674;49.722;10.892;2023-02-11T06:43:44;-1.50;99.90
5304;DHT22;2674;49.722;10.892;2023-02-11T06:46:11;-1.50;99.90
5304;DHT22;2674;49.722;10.892;2023-02-11T06:48:37;-1.50;99.90
5304;DHT22;2674;49.722;10.892;2023-02-11T06:51:06;-1.50;99.90
5304;DHT22;2674;49.722;10.892;2023-02-11T06:53:41;-1.50;99.90
5304;DHT22;2674;49.722;10.892;2023-02-11T06:56:09;-1.40;99.90
5304;DHT22;2674;49.722;10.892;2023-02-11T06:58:35;-1.40;99.90
5304;DHT22;2674;49.722;10.892;2023-02-11T07:01:11;-1.40;99.90
5304;DHT22;2674;49.722;10.892;2023-02-11T07:03:40;-1.50;99.90
5304;DHT22;2674;49.722;10.892;2023-02-11T07:06:12;-1.50;99.90
5304;DHT22;2674;49.722;10.892;2023-02-11T07:08:38;-1.50;99.90
5304;DHT22;2674;49.722;10.892;2023-02-11T07:11:23;-1.40;99.90
5304;DHT22;2674;49.722;10.892;2023-02-11T07:13:50;-1.40;99.90
5304;DHT22;2674;49.722;10.892;2023-02-11T07:16:18;-1.40;99.90
5304;DHT22;2674;49.722;10.892;2023-02-11T07:18:44;-1.30;99.90
5304;DHT22;2674;49.722;10.892;2023-02-11T07:21:12;-1.30;99.90
5304;DHT22;2674;49.722;10.892;2023-02-11T07:23:38;-1.20;99.90
5304;DHT22;2674;49.722;10.892;2023-02-11T07:26:13;-1.20;99.90
5304;DHT22;2674;49.722;10.892;2023-02-11T07:28:41;-1.10;99.90
5304;DHT22;2674;49.722;10.892;2023-02-11T07:31:13;-1.00;99.90
5304;DHT22;2674;49.722;10.892;2023-02-11T07:33:40;-0.90;99.90
5304;DHT22;2674;49.722;10.892;2023-02-11T07:36:07;-0.80;99.90
5304;DHT22;2674;49.722;10.892;2023-02-11T07:38:34;-0.70;99.90
5304;DHT22;2674;49.722;10.892;2023-02-11T07:41:05;-0.60;99.90
5304;DHT22;2674;49.722;10.892;2023-02-11T07:43:31;-0.50;99.90
5304;DHT22;2674;49.722;10.892;2023-02-11T07:45:57;-0.40;99.90
5304;DHT22;2674;49.722;10.892;2023-02-11T07:48:23;-0.30;99.90
5304;DHT22;2674;49.722;10.892;2023-02-11T07:50:49;-0.20;99.90
5304;DHT22;2674;49.722;10.892;2023-02-11T07:53:15;0.00;99.90
5304;DHT22;2674;49.722;10.892;2023-02-11T07:55:44;0.00;99.90
5304;DHT22;2674;49.722;10.892;2023-02-11T07:58:10;0.00;99.90
5304;DHT22;2674;49.722;10.892;2023-02-11T08:00:36;0.00;99.90
5304;DHT22;2674;49.722;10.892;2023-02-11T08:03:02;0.10;99.90
5304;DHT22;2674;49.722;10.892;2023-02-11T08:05:28;0.10;99.90
5304;DHT22;2674;49.722;10.892;2023-02-11T08:07:55;0.20;99.90
5304;DHT22;2674;49.722;10.892;2023-02-11T08:10:21;0.20;99.90
5304;DHT22;2674;49.722;10.892;2023-02-11T08:12:47;0.20;99.90
5304;DHT22;2674;49.722;10.892;2023-02-11T08:15:13;0.30;99.90
5304;DHT22;2674;49.722;10.892;2023-02-11T08:17:39;0.30;99.90
5304;DHT22;2674;49.722;10.892;2023-02-11T08:20:06;0.40;99.90
5304;DHT22;2674;49.722;10.892;2023-02-11T08:22:33;0.50;99.90
5304;DHT22;2674;49.722;10.892;2023-02-11T08:24:59;0.50;99.90
5304;DHT22;2674;49.722;10.892;2023-02-11T08:27:25;0.60;99.90
5304;DHT22;2674;49.722;10.892;2023-02-11T08:29:53;0.60;99.90
5304;DHT22;2674;49.722;10.892;2023-02-11T08:32:22;0.70;99.90
5304;DHT22;2674;49.722;10.892;2023-02-11T08:34:53;0.80;99.90
5304;DHT22;2674;49.722;10.892;2023-02-11T08:37:19;0.80;99.90
5304;DHT22;2674;49.722;10.892;2023-02-11T08:39:45;0.90;99.90
5304;DHT22;2674;49.722;10.892;2023-02-11T08:42:12;1.00;99.90
5304;DHT22;2674;49.722;10.892;2023-02-11T08:44:40;1.00;99.90
5304;DHT22;2674;49.722;10.892;2023-02-11T08:47:06;1.10;99.90
5304;DHT22;2674;49.722;10.892;2023-02-11T08:49:32;1.10;99.90
5304;DHT22;2674;49.722;10.892;2023-02-11T08:51:59;1.20;99.90
5304;DHT22;2674;49.722;10.892;2023-02-11T08:54:29;1.30;99.90
5304;DHT22;2674;49.722;10.892;2023-02-11T08:56:55;1.40;99.90
5304;DHT22;2674;49.722;10.892;2023-02-11T08:59:22;1.50;99.90
5304;DHT22;2674;49.722;10.892;2023-02-11T09:01:48;1.60;99.90
5304;DHT22;2674;49.722;10.892;2023-02-11T09:04:14;1.70;99.90
5304;DHT22;2674;49.722;10.892;2023-02-11T09:06:40;1.70;99.90
5304;DHT22;2674;49.722;10.892;2023-02-11T09:09:10;1.70;99.90
5304;DHT22;2674;49.722;10.892;2023-02-11T09:11:36;1.80;99.90
5304;DHT22;2674;49.722;10.892;2023-02-11T09:14:02;1.80;99.90
5304;DHT22;2674;49.722;10.892;2023-02-11T09:16:31;1.80;99.90
5304;DHT22;2674;49.722;10.892;2023-02-11T09:18:59;1.90;99.90
5304;DHT22;2674;49.722;10.892;2023-02-11T09:21:25;1.90;99.90
5304;DHT22;2674;49.722;10.892;2023-02-11T09:23:52;2.00;99.90
5304;DHT22;2674;49.722;10.892;2023-02-11T09:26:29;2.00;99.90
5304;DHT22;2674;49.722;10.892;2023-02-11T09:28:55;2.00;99.90
5304;DHT22;2674;49.722;10.892;2023-02-11T09:31:23;2.00;99.90
5304;DHT22;2674;49.722;10.892;2023-02-11T09:33:51;2.10;99.90
5304;DHT22;2674;49.722;10.892;2023-02-11T09:36:23;2.10;99.90
5304;DHT22;2674;49.722;10.892;2023-02-11T09:38:49;2.20;99.90
5304;DHT22;2674;49.722;10.892;2023-02-11T09:42:19;2.20;99.90
5304;DHT22;2674;49.722;10.892;2023-02-11T09:44:30;2.30;99.90
5304;DHT22;2674;49.722;10.892;2023-02-11T09:49:40;2.50;99.90
5304;DHT22;2674;49.722;10.892;2023-02-11T09:52:44;2.60;99.90
5304;DHT22;2674;49.722;10.892;2023-02-11T09:57:49;2.90;99.90
5304;DHT22;2674;49.722;10.892;2023-02-11T10:00:30;2.90;99.90
5304;DHT22;2674;49.722;10.892;2023-02-11T10:16:57;3.30;99.90
5304;DHT22;2674;49.722;10.892;2023-02-11T10:22:34;3.50;99.90
5304;DHT22;2674;49.722;10.892;2023-02-11T10:25:14;3.50;99.90
5304;DHT22;2674;49.722;10.892;2023-02-11T10:27:42;3.50;99.90
5304;DHT22;2674;49.722;10.892;2023-02-11T10:33:20;3.60;99.90
5304;DHT22;2674;49.722;10.892;2023-02-11T10:35:47;3.60;99.90
5304;DHT22;2674;49.722;10.892;2023-02-11T10:38:13;3.70;99.90
5304;DHT22;2674;49.722;10.892;2023-02-11T10:40:39;3.70;99.90
5304;DHT22;2674;49.722;10.892;2023-02-11T10:43:11;3.70;99.90
5304;DHT22;2674;49.722;10.892;2023-02-11T10:45:39;3.70;99.90
5304;DHT22;2674;49.722;10.892;2023-02-11T10:56:32;3.90;99.90
5304;DHT22;2674;49.722;10.892;2023-02-11T10:59:06;3.80;99.90
5304;DHT22;2674;49.722;10.892;2023-02-11T11:01:55;4.00;99.90
5304;DHT22;2674;49.722;10.892;2023-02-11T11:04:33;4.00;99.90
5304;DHT22;2674;49.722;10.892;2023-02-11T11:07:29;4.10;99.90
5304;DHT22;2674;49.722;10.892;2023-02-11T11:10:41;4.20;99.90
5304;DHT22;2674;49.722;10.892;2023-02-11T11:12:46;4.30;99.90
5304;DHT22;2674;49.722;10.892;2023-02-11T11:15:35;4.30;99.90
5304;DHT22;2674;49.722;10.892;2023-02-11T11:18:13;4.40;99.90
5304;DHT22;2674;49.722;10.892;2023-02-11T11:20:54;4.40;99.90
5304;DHT22;2674;49.722;10.892;2023-02-11T11:23:22;4.40;99.90
5304;DHT22;2674;49.722;10.892;2023-02-11T11:26:08;4.40;99.90
5304;DHT22;2674;49.722;10.892;2023-02-11T11:28:57;4.50;99.90
5304;DHT22;2674;49.722;10.892;2023-02-11T11:32:10;4.50;99.90
5304;DHT22;2674;49.722;10.892;2023-02-11T11:34:30;4.50;99.90
5304;DHT22;2674;49.722;10.892;2023-02-11T11:36:59;4.50;99.90
5304;DHT22;2674;49.722;10.892;2023-02-11T11:39:30;4.30;99.90
5304;DHT22;2674;49.722;10.892;2023-02-11T11:42:02;4.60;99.90
5304;DHT22;2674;49.722;10.892;2023-02-11T11:44:32;4.60;99.90
5304;DHT22;2674;49.722;10.892;2023-02-11T11:47:28;4.60;99.90
5304;DHT22;2674;49.722;10.892;2023-02-11T11:50:25;4.70;99.90
5304;DHT22;2674;49.722;10.892;2023-02-11T11:53:09;4.70;99.90
5304;DHT22;2674;49.722;10.892;2023-02-11T11:55:53;4.70;99.90
5304;DHT22;2674;49.722;10.892;2023-02-11T11:58:21;4.80;99.90
5304;DHT22;2674;49.722;10.892;2023-02-11T12:12:19;5.00;99.20
5304;DHT22;2674;49.722;10.892;2023-02-11T12:20:59;4.90;99.90
5304;DHT22;2674;49.722;10.892;2023-02-11T12:23:57;4.90;99.90
5304;DHT22;2674;49.722;10.892;2023-02-11T12:56:49;5.10;99.90
5304;DHT22;2674;49.722;10.892;2023-02-11T13:04:47;5.20;99.90
5304;DHT22;2674;49.722;10.892;2023-02-11T13:07:21;5.20;99.90
5304;DHT22;2674;49.722;10.892;2023-02-11T13:10:30;5.30;99.90
5304;DHT22;2674;49.722;10.892;2023-02-11T13:12:58;5.40;99.90
5304;DHT22;2674;49.722;10.892;2023-02-11T13:15:52;5.50;99.90
5304;DHT22;2674;49.722;10.892;2023-02-11T13:31:25;5.70;99.90
5304;DHT22;2674;49.722;10.892;2023-02-11T13:33:53;5.60;99.90
5304;DHT22;2674;49.722;10.892;2023-02-11T13:36:21;5.60;99.70
5304;DHT22;2674;49.722;10.892;2023-02-11T13:39:00;5.50;99.90
5304;DHT22;2674;49.722;10.892;2023-02-11T13:41:38;5.50;99.90
5304;DHT22;2674;49.722;10.892;2023-02-11T13:46:57;5.40;99.90
5304;DHT22;2674;49.722;10.892;2023-02-11T13:49:48;5.50;99.90
5304;DHT22;2674;49.722;10.892;2023-02-11T13:52:36;5.50;99.90
5304;DHT22;2674;49.722;10.892;2023-02-11T13:55:21;5.50;99.90
5304;DHT22;2674;49.722;10.892;2023-02-11T14:11:52;5.70;99.90
5304;DHT22;2674;49.722;10.892;2023-02-11T14:14:29;5.70;99.90
5304;DHT22;2674;49.722;10.892;2023-02-11T14:41:06;5.60;99.90
5304;DHT22;2674;49.722;10.892;2023-02-11T14:43:45;5.50;99.90
5304;DHT22;2674;49.722;10.892;2023-02-11T14:46:15;5.50;99.90
5304;DHT22;2674;49.722;10.892;2023-02-11T14:48:47;5.50;99.90
5304;DHT22;2674;49.722;10.892;2023-02-11T14:51:25;5.50;99.90
5304;DHT22;2674;49.722;10.892;2023-02-11T14:54:00;5.40;99.90
5304;DHT22;2674;49.722;10.892;2023-02-11T14:56:30;5.40;99.90
5304;DHT22;2674;49.722;10.892;2023-02-11T14:58:57;5.40;99.90
5304;DHT22;2674;49.722;10.892;2023-02-11T15:03:58;5.30;99.90
5304;DHT22;2674;49.722;10.892;2023-02-11T15:06:36;5.30;99.90
5304;DHT22;2674;49.722;10.892;2023-02-11T15:09:11;5.20;99.90
5304;DHT22;2674;49.722;10.892;2023-02-11T15:11:39;5.20;99.90
5304;DHT22;2674;49.722;10.892;2023-02-11T15:14:18;5.20;99.90
5304;DHT22;2674;49.722;10.892;2023-02-11T15:16:46;5.20;99.90
5304;DHT22;2674;49.722;10.892;2023-02-11T15:19:37;5.20;99.90
5304;DHT22;2674;49.722;10.892;2023-02-11T15:22:14;5.20;99.90
5304;DHT22;2674;49.722;10.892;2023-02-11T15:24:43;5.20;99.90
5304;DHT22;2674;49.722;10.892;2023-02-11T15:29:46;5.10;99.90
5304;DHT22;2674;49.722;10.892;2023-02-11T15:32:14;5.10;99.90
5304;DHT22;2674;49.722;10.892;2023-02-11T15:34:46;5.10;99.90
5304;DHT22;2674;49.722;10.892;2023-02-11T15:37:26;5.10;99.90
5304;DHT22;2674;49.722;10.892;2023-02-11T15:39:54;5.10;99.90
5304;DHT22;2674;49.722;10.892;2023-02-11T15:42:32;5.10;99.90
5304;DHT22;2674;49.722;10.892;2023-02-11T15:45:21;5.00;99.90
5304;DHT22;2674;49.722;10.892;2023-02-11T15:50:36;5.00;99.90
5304;DHT22;2674;49.722;10.892;2023-02-11T15:53:32;5.00;99.90
5304;DHT22;2674;49.722;10.892;2023-02-11T15:56:21;5.00;99.90
5304;DHT22;2674;49.722;10.892;2023-02-11T15:58:53;5.00;99.90
5304;DHT22;2674;49.722;10.892;2023-02-11T16:01:40;5.00;99.90
5304;DHT22;2674;49.722;10.892;2023-02-11T16:04:15;5.00;99.90
5304;DHT22;2674;49.722;10.892;2023-02-11T16:06:41;5.00;99.90
5304;DHT22;2674;49.722;10.892;2023-02-11T16:11:54;5.00;99.90
5304;DHT22;2674;49.722;10.892;2023-02-11T16:17:03;4.90;99.90
5304;DHT22;2674;49.722;10.892;2023-02-11T16:19:32;4.90;99.90
5304;DHT22;2674;49.722;10.892;2023-02-11T16:22:00;4.90;99.90
5304;DHT22;2674;49.722;10.892;2023-02-11T16:24:29;4.90;99.90
5304;DHT22;2674;49.722;10.892;2023-02-11T16:27:05;4.90;99.90
5304;DHT22;2674;49.722;10.892;2023-02-11T16:29:35;4.80;99.90
5304;DHT22;2674;49.722;10.892;2023-02-11T16:32:15;4.80;99.90
5304;DHT22;2674;49.722;10.892;2023-02-11T16:34:41;4.80;99.90
5304;DHT22;2674;49.722;10.892;2023-02-11T16:37:06;4.80;99.90
5304;DHT22;2674;49.722;10.892;2023-02-11T16:39:32;4.80;99.90
5304;DHT22;2674;49.722;10.892;2023-02-11T16:41:59;4.80;99.90
5304;DHT22;2674;49.722;10.892;2023-02-11T16:44:25;4.70;99.90
5304;DHT22;2674;49.722;10.892;2023-02-11T16:46:52;4.70;99.90
5304;DHT22;2674;49.722;10.892;2023-02-11T16:49:28;4.70;99.90
5304;DHT22;2674;49.722;10.892;2023-02-11T16:51:57;4.70;99.90
5304;DHT22;2674;49.722;10.892;2023-02-11T16:54:26;4.70;99.90
5304;DHT22;2674;49.722;10.892;2023-02-11T16:56:52;4.60;99.90
5304;DHT22;2674;49.722;10.892;2023-02-11T16:59:18;4.60;99.90
5304;DHT22;2674;49.722;10.892;2023-02-11T17:01:44;4.60;99.90
5304;DHT22;2674;49.722;10.892;2023-02-11T17:04:30;4.60;99.90
5304;DHT22;2674;49.722;10.892;2023-02-11T17:06:58;4.50;99.90
5304;DHT22;2674;49.722;10.892;2023-02-11T17:09:25;4.50;99.90
5304;DHT22;2674;49.722;10.892;2023-02-11T17:11:52;4.50;99.90
5304;DHT22;2674;49.722;10.892;2023-02-11T17:14:18;4.50;99.90
5304;DHT22;2674;49.722;10.892;2023-02-11T17:16:46;4.50;99.90
5304;DHT22;2674;49.722;10.892;2023-02-11T17:19:14;4.50;99.90
5304;DHT22;2674;49.722;10.892;2023-02-11T17:21:44;4.40;99.90
5304;DHT22;2674;49.722;10.892;2023-02-11T17:24:11;4.40;99.90
5304;DHT22;2674;49.722;10.892;2023-02-11T17:26:38;4.40;99.90
5304;DHT22;2674;49.722;10.892;2023-02-11T17:29:05;4.40;99.90
5304;DHT22;2674;49.722;10.892;2023-02-11T17:31:32;4.40;99.90
5304;DHT22;2674;49.722;10.892;2023-02-11T17:34:01;4.30;99.90
5304;DHT22;2674;49.722;10.892;2023-02-11T17:36:28;4.30;99.90
5304;DHT22;2674;49.722;10.892;2023-02-11T17:38:56;4.30;99.90
5304;DHT22;2674;49.722;10.892;2023-02-11T17:41:23;4.30;99.90
5304;DHT22;2674;49.722;10.892;2023-02-11T17:43:49;4.30;99.90
5304;DHT22;2674;49.722;10.892;2023-02-11T17:46:15;4.30;99.90
5304;DHT22;2674;49.722;10.892;2023-02-11T17:48:41;4.20;99.90
5304;DHT22;2674;49.722;10.892;2023-02-11T17:51:24;4.30;99.90
5304;DHT22;2674;49.722;10.892;2023-02-11T17:53:52;4.30;99.90
5304;DHT22;2674;49.722;10.892;2023-02-11T17:56:18;4.30;99.90
5304;DHT22;2674;49.722;10.892;2023-02-11T17:58:44;4.30;99.90
5304;DHT22;2674;49.722;10.892;2023-02-11T18:01:10;4.30;99.90
5304;DHT22;2674;49.722;10.892;2023-02-11T18:03:37;4.30;99.90
5304;DHT22;2674;49.722;10.892;2023-02-11T18:06:04;4.30;99.90
5304;DHT22;2674;49.722;10.892;2023-02-11T18:08:32;4.30;99.90
5304;DHT22;2674;49.722;10.892;2023-02-11T18:10:58;4.40;99.90
5304;DHT22;2674;49.722;10.892;2023-02-11T18:13:24;4.40;99.90
5304;DHT22;2674;49.722;10.892;2023-02-11T18:15:50;4.40;99.90
5304;DHT22;2674;49.722;10.892;2023-02-11T18:18:16;4.40;99.90
5304;DHT22;2674;49.722;10.892;2023-02-11T18:20:42;4.40;99.90
5304;DHT22;2674;49.722;10.892;2023-02-11T18:23:09;4.50;99.90
5304;DHT22;2674;49.722;10.892;2023-02-11T18:25:35;4.50;99.90
5304;DHT22;2674;49.722;10.892;2023-02-11T18:28:01;4.50;99.90
5304;DHT22;2674;49.722;10.892;2023-02-11T18:30:30;4.40;99.90
5304;DHT22;2674;49.722;10.892;2023-02-11T18:32:57;4.50;99.90
5304;DHT22;2674;49.722;10.892;2023-02-11T18:35:23;4.50;99.90
5304;DHT22;2674;49.722;10.892;2023-02-11T18:37:48;4.50;99.90
5304;DHT22;2674;49.722;10.892;2023-02-11T18:40:15;4.50;99.90
5304;DHT22;2674;49.722;10.892;2023-02-11T18:42:41;4.50;99.90
5304;DHT22;2674;49.722;10.892;2023-02-11T18:45:10;4.50;99.90
5304;DHT22;2674;49.722;10.892;2023-02-11T18:47:37;4.50;99.90
5304;DHT22;2674;49.722;10.892;2023-02-11T18:50:04;4.40;99.90
5304;DHT22;2674;49.722;10.892;2023-02-11T18:52:32;4.40;99.90
5304;DHT22;2674;49.722;10.892;2023-02-11T18:54:58;4.40;99.90
5304;DHT22;2674;49.722;10.892;2023-02-11T18:57:23;4.40;99.90
5304;DHT22;2674;49.722;10.892;2023-02-11T18:59:49;4.40;99.90
5304;DHT22;2674;49.722;10.892;2023-02-11T19:02:16;4.30;99.90
5304;DHT22;2674;49.722;10.892;2023-02-11T19:04:42;4.30;99.90
5304;DHT22;2674;49.722;10.892;2023-02-11T19:07:08;4.30;99.90
5304;DHT22;2674;49.722;10.892;2023-02-11T19:09:34;4.30;99.90
5304;DHT22;2674;49.722;10.892;2023-02-11T19:12:00;4.30;99.90
5304;DHT22;2674;49.722;10.892;2023-02-11T19:14:31;4.30;99.90
5304;DHT22;2674;49.722;10.892;2023-02-11T19:17:00;4.30;99.90